sensor_id;sensor_type;location;lat;lon;timestamp;P1;durP1;ratioP1;P2;durP2;ratioP2
67352;SDS011;54238;52.278;21.056;2022-11-30T00:01:51;28.30;;;16.90;;
67352;SDS011;54238;52.278;21.056;2022-11-30T00:04:18;28.40;;;15.40;;
67352;SDS011;54238;52.278;21.056;2022-11-30T00:06:48;25.30;;;14.90;;
67352;SDS011;54238;52.278;21.056;2022-11-30T00:09:22;25.40;;;15.80;;
67352;SDS011;54238;52.278;21.056;2022-11-30T00:11:52;26.00;;;16.30;;
67352;SDS011;54238;52.278;21.056;2022-11-30T00:14:19;25.70;;;16.50;;
67352;SDS011;54238;52.278;21.056;2022-11-30T00:16:48;26.20;;;15.20;;
67352;SDS011;54238;52.278;21.056;2022-11-30T00:19:14;28.20;;;14.90;;
67352;SDS011;54238;52.278;21.056;2022-11-30T00:21:41;26.30;;;16.00;;
67352;SDS011;54238;52.278;21.056;2022-11-30T00:24:10;20.00;;;10.90;;
67352;SDS011;54238;52.278;21.056;2022-11-30T00:26:39;22.70;;;13.10;;
67352;SDS011;54238;52.278;21.056;2022-11-30T00:29:06;19.80;;;11.50;;
67352;SDS011;54238;52.278;21.056;2022-11-30T00:31:41;25.10;;;13.50;;
67352;SDS011;54238;52.278;21.056;2022-11-30T00:34:11;22.10;;;13.30;;
67352;SDS011;54238;52.278;21.056;2022-11-30T00:36:38;20.20;;;13.20;;
67352;SDS011;54238;52.278;21.056;2022-11-30T00:39:05;32.10;;;16.40;;
67352;SDS011;54238;52.278;21.056;2022-11-30T00:41:34;26.20;;;15.60;;
67352;SDS011;54238;52.278;21.056;2022-11-30T00:44:06;25.90;;;16.50;;
67352;SDS011;54238;52.278;21.056;2022-11-30T00:46:35;26.40;;;15.70;;
67352;SDS011;54238;52.278;21.056;2022-11-30T00:49:02;26.00;;;16.10;;
67352;SDS011;54238;52.278;21.056;2022-11-30T00:51:31;28.80;;;16.50;;
67352;SDS011;54238;52.278;21.056;2022-11-30T00:54:01;31.10;;;16.60;;
67352;SDS011;54238;52.278;21.056;2022-11-30T00:56:32;27.30;;;16.50;;
67352;SDS011;54238;52.278;21.056;2022-11-30T00:59:01;21.00;;;12.80;;
67352;SDS011;54238;52.278;21.056;2022-11-30T01:01:31;20.60;;;12.10;;
67352;SDS011;54238;52.278;21.056;2022-11-30T01:03:57;23.50;;;13.30;;
67352;SDS011;54238;52.278;21.056;2022-11-30T01:06:24;19.50;;;11.20;;
67352;SDS011;54238;52.278;21.056;2022-11-30T01:08:57;24.00;;;12.60;;
67352;SDS011;54238;52.278;21.056;2022-11-30T01:11:26;27.80;;;14.80;;
67352;SDS011;54238;52.278;21.056;2022-11-30T01:13:58;26.00;;;14.40;;
67352;SDS011;54238;52.278;21.056;2022-11-30T01:16:30;25.80;;;14.30;;
67352;SDS011;54238;52.278;21.056;2022-11-30T01:19:01;27.80;;;15.80;;
67352;SDS011;54238;52.278;21.056;2022-11-30T01:21:30;26.80;;;14.90;;
67352;SDS011;54238;52.278;21.056;2022-11-30T01:24:02;31.40;;;15.20;;
67352;SDS011;54238;52.278;21.056;2022-11-30T01:26:39;28.40;;;14.60;;
67352;SDS011;54238;52.278;21.056;2022-11-30T01:29:08;26.50;;;13.70;;
67352;SDS011;54238;52.278;21.056;2022-11-30T01:31:38;23.60;;;13.60;;
67352;SDS011;54238;52.278;21.056;2022-11-30T01:34:05;25.00;;;14.50;;
67352;SDS011;54238;52.278;21.056;2022-11-30T01:36:34;26.30;;;15.80;;
67352;SDS011;54238;52.278;21.056;2022-11-30T01:39:06;24.70;;;14.80;;
67352;SDS011;54238;52.278;21.056;2022-11-30T01:41:39;25.40;;;14.20;;
67352;SDS011;54238;52.278;21.056;2022-11-30T01:46:45;30.20;;;16.80;;
67352;SDS011;54238;52.278;21.056;2022-11-30T01:49:24;30.90;;;16.60;;
67352;SDS011;54238;52.278;21.056;2022-11-30T01:54:55;23.00;;;12.90;;
67352;SDS011;54238;52.278;21.056;2022-11-30T01:57:37;29.00;;;16.20;;
67352;SDS011;54238;52.278;21.056;2022-11-30T02:00:17;26.50;;;15.20;;
67352;SDS011;54238;52.278;21.056;2022-11-30T02:03:07;32.20;;;16.60;;
67352;SDS011;54238;52.278;21.056;2022-11-30T02:05:50;33.50;;;18.50;;
67352;SDS011;54238;52.278;21.056;2022-11-30T02:08:27;33.20;;;18.40;;
67352;SDS011;54238;52.278;21.056;2022-11-30T02:11:02;31.20;;;16.40;;
67352;SDS011;54238;52.278;21.056;2022-11-30T02:13:43;30.30;;;16.50;;
67352;SDS011;54238;52.278;21.056;2022-11-30T02:25:35;30.80;;;15.80;;
67352;SDS011;54238;52.278;21.056;2022-11-30T02:28:18;33.50;;;17.10;;
67352;SDS011;54238;52.278;21.056;2022-11-30T02:31:17;28.30;;;15.90;;
67352;SDS011;54238;52.278;21.056;2022-11-30T02:33:55;31.00;;;16.00;;
67352;SDS011;54238;52.278;21.056;2022-11-30T02:36:29;30.50;;;15.60;;
67352;SDS011;54238;52.278;21.056;2022-11-30T02:38:57;31.70;;;16.90;;
67352;SDS011;54238;52.278;21.056;2022-11-30T02:41:34;29.90;;;15.70;;
67352;SDS011;54238;52.278;21.056;2022-11-30T02:44:06;30.80;;;16.80;;
67352;SDS011;54238;52.278;21.056;2022-11-30T02:52:27;28.90;;;16.90;;
67352;SDS011;54238;52.278;21.056;2022-11-30T02:55:05;23.30;;;13.70;;
67352;SDS011;54238;52.278;21.056;2022-11-30T02:57:34;29.70;;;17.50;;
67352;SDS011;54238;52.278;21.056;2022-11-30T03:00:06;27.20;;;15.80;;
67352;SDS011;54238;52.278;21.056;2022-11-30T03:05:05;29.30;;;16.70;;
67352;SDS011;54238;52.278;21.056;2022-11-30T03:07:36;29.30;;;15.60;;
67352;SDS011;54238;52.278;21.056;2022-11-30T03:10:06;24.00;;;12.80;;
67352;SDS011;54238;52.278;21.056;2022-11-30T03:12:38;29.50;;;16.60;;
67352;SDS011;54238;52.278;21.056;2022-11-30T03:15:06;27.60;;;16.40;;
67352;SDS011;54238;52.278;21.056;2022-11-30T03:17:37;29.30;;;17.10;;
67352;SDS011;54238;52.278;21.056;2022-11-30T03:20:07;30.10;;;17.30;;
67352;SDS011;54238;52.278;21.056;2022-11-30T03:22:36;29.00;;;16.90;;
67352;SDS011;54238;52.278;21.056;2022-11-30T03:25:08;29.00;;;18.10;;
67352;SDS011;54238;52.278;21.056;2022-11-30T03:27:37;32.10;;;18.70;;
67352;SDS011;54238;52.278;21.056;2022-11-30T03:30:05;35.70;;;16.90;;
67352;SDS011;54238;52.278;21.056;2022-11-30T03:32:36;27.40;;;16.70;;
67352;SDS011;54238;52.278;21.056;2022-11-30T03:35:05;33.20;;;17.90;;
67352;SDS011;54238;52.278;21.056;2022-11-30T03:37:35;30.80;;;17.60;;
67352;SDS011;54238;52.278;21.056;2022-11-30T03:40:03;33.30;;;17.60;;
67352;SDS011;54238;52.278;21.056;2022-11-30T03:42:30;29.80;;;17.90;;
67352;SDS011;54238;52.278;21.056;2022-11-30T03:45:02;28.50;;;15.90;;
67352;SDS011;54238;52.278;21.056;2022-11-30T03:47:35;30.30;;;17.90;;
67352;SDS011;54238;52.278;21.056;2022-11-30T03:50:05;32.00;;;17.80;;
67352;SDS011;54238;52.278;21.056;2022-11-30T03:52:33;27.60;;;16.20;;
67352;SDS011;54238;52.278;21.056;2022-11-30T03:55:06;25.10;;;14.80;;
67352;SDS011;54238;52.278;21.056;2022-11-30T03:57:34;25.50;;;13.60;;
67352;SDS011;54238;52.278;21.056;2022-11-30T04:00:05;25.40;;;13.40;;
67352;SDS011;54238;52.278;21.056;2022-11-30T04:02:38;32.20;;;16.40;;
67352;SDS011;54238;52.278;21.056;2022-11-30T04:05:09;32.80;;;17.60;;
67352;SDS011;54238;52.278;21.056;2022-11-30T04:07:39;31.40;;;17.30;;
67352;SDS011;54238;52.278;21.056;2022-11-30T04:10:06;27.80;;;16.00;;
67352;SDS011;54238;52.278;21.056;2022-11-30T04:12:40;29.20;;;17.10;;
67352;SDS011;54238;52.278;21.056;2022-11-30T04:15:11;31.20;;;16.20;;
67352;SDS011;54238;52.278;21.056;2022-11-30T04:17:38;33.60;;;18.90;;
67352;SDS011;54238;52.278;21.056;2022-11-30T04:20:08;31.70;;;17.30;;
67352;SDS011;54238;52.278;21.056;2022-11-30T04:22:38;32.20;;;17.60;;
67352;SDS011;54238;52.278;21.056;2022-11-30T04:25:05;32.60;;;18.80;;
67352;SDS011;54238;52.278;21.056;2022-11-30T04:27:37;25.70;;;15.10;;
67352;SDS011;54238;52.278;21.056;2022-11-30T04:30:08;30.30;;;17.00;;
67352;SDS011;54238;52.278;21.056;2022-11-30T04:32:41;19.70;;;12.30;;
67352;SDS011;54238;52.278;21.056;2022-11-30T04:35:08;34.40;;;17.80;;
67352;SDS011;54238;52.278;21.056;2022-11-30T04:37:38;24.50;;;13.80;;
67352;SDS011;54238;52.278;21.056;2022-11-30T04:40:06;29.40;;;17.60;;
67352;SDS011;54238;52.278;21.056;2022-11-30T04:42:35;26.00;;;14.60;;
67352;SDS011;54238;52.278;21.056;2022-11-30T04:45:03;30.70;;;17.40;;
67352;SDS011;54238;52.278;21.056;2022-11-30T04:47:31;30.90;;;17.50;;
67352;SDS011;54238;52.278;21.056;2022-11-30T04:50:07;29.00;;;16.70;;
67352;SDS011;54238;52.278;21.056;2022-11-30T04:52:36;25.80;;;15.90;;
67352;SDS011;54238;52.278;21.056;2022-11-30T04:55:07;28.60;;;16.70;;
67352;SDS011;54238;52.278;21.056;2022-11-30T04:57:34;28.70;;;16.50;;
67352;SDS011;54238;52.278;21.056;2022-11-30T05:00:05;29.60;;;16.60;;
67352;SDS011;54238;52.278;21.056;2022-11-30T05:02:34;25.70;;;15.70;;
67352;SDS011;54238;52.278;21.056;2022-11-30T05:05:03;30.00;;;16.30;;
67352;SDS011;54238;52.278;21.056;2022-11-30T05:07:31;33.30;;;17.10;;
67352;SDS011;54238;52.278;21.056;2022-11-30T05:09:58;28.30;;;16.20;;
67352;SDS011;54238;52.278;21.056;2022-11-30T05:12:30;25.30;;;16.00;;
67352;SDS011;54238;52.278;21.056;2022-11-30T05:15:05;24.30;;;14.50;;
67352;SDS011;54238;52.278;21.056;2022-11-30T05:17:33;24.50;;;13.50;;
67352;SDS011;54238;52.278;21.056;2022-11-30T05:23:06;25.20;;;14.90;;
67352;SDS011;54238;52.278;21.056;2022-11-30T05:25:37;21.80;;;12.70;;
67352;SDS011;54238;52.278;21.056;2022-11-30T05:28:07;24.40;;;14.30;;
67352;SDS011;54238;52.278;21.056;2022-11-30T05:30:35;32.90;;;16.60;;
67352;SDS011;54238;52.278;21.056;2022-11-30T05:33:06;28.10;;;16.00;;
67352;SDS011;54238;52.278;21.056;2022-11-30T05:35:44;27.40;;;15.20;;
67352;SDS011;54238;52.278;21.056;2022-11-30T05:38:14;26.20;;;16.20;;
67352;SDS011;54238;52.278;21.056;2022-11-30T05:43:40;27.00;;;16.60;;
67352;SDS011;54238;52.278;21.056;2022-11-30T05:46:08;28.90;;;15.90;;
67352;SDS011;54238;52.278;21.056;2022-11-30T05:48:36;27.40;;;15.80;;
67352;SDS011;54238;52.278;21.056;2022-11-30T05:54:09;30.10;;;16.30;;
67352;SDS011;54238;52.278;21.056;2022-11-30T05:56:38;27.50;;;14.50;;
67352;SDS011;54238;52.278;21.056;2022-11-30T05:59:05;29.10;;;16.70;;
67352;SDS011;54238;52.278;21.056;2022-11-30T06:01:33;28.60;;;17.20;;
67352;SDS011;54238;52.278;21.056;2022-11-30T06:04:04;25.90;;;16.10;;
67352;SDS011;54238;52.278;21.056;2022-11-30T06:06:44;29.30;;;16.10;;
67352;SDS011;54238;52.278;21.056;2022-11-30T06:09:15;24.80;;;15.10;;
67352;SDS011;54238;52.278;21.056;2022-11-30T06:11:52;28.10;;;15.90;;
67352;SDS011;54238;52.278;21.056;2022-11-30T06:14:23;31.10;;;17.40;;
67352;SDS011;54238;52.278;21.056;2022-11-30T06:17:23;28.30;;;17.10;;
67352;SDS011;54238;52.278;21.056;2022-11-30T06:19:53;33.00;;;18.80;;
67352;SDS011;54238;52.278;21.056;2022-11-30T06:22:25;30.20;;;17.50;;
67352;SDS011;54238;52.278;21.056;2022-11-30T06:24:54;29.30;;;17.70;;
67352;SDS011;54238;52.278;21.056;2022-11-30T06:27:21;33.70;;;18.20;;
67352;SDS011;54238;52.278;21.056;2022-11-30T06:29:48;30.20;;;16.40;;
67352;SDS011;54238;52.278;21.056;2022-11-30T06:32:18;32.10;;;18.40;;
67352;SDS011;54238;52.278;21.056;2022-11-30T06:34:47;28.70;;;17.30;;
67352;SDS011;54238;52.278;21.056;2022-11-30T06:37:14;29.90;;;18.20;;
67352;SDS011;54238;52.278;21.056;2022-11-30T06:39:41;37.80;;;18.70;;
67352;SDS011;54238;52.278;21.056;2022-11-30T06:42:10;32.70;;;17.30;;
67352;SDS011;54238;52.278;21.056;2022-11-30T06:44:37;30.40;;;17.50;;
67352;SDS011;54238;52.278;21.056;2022-11-30T06:47:09;28.50;;;15.80;;
67352;SDS011;54238;52.278;21.056;2022-11-30T06:49:41;27.80;;;17.50;;
67352;SDS011;54238;52.278;21.056;2022-11-30T06:52:29;28.20;;;16.50;;
67352;SDS011;54238;52.278;21.056;2022-11-30T06:54:57;32.80;;;18.40;;
67352;SDS011;54238;52.278;21.056;2022-11-30T06:57:29;29.50;;;17.90;;
67352;SDS011;54238;52.278;21.056;2022-11-30T06:59:56;33.60;;;18.50;;
67352;SDS011;54238;52.278;21.056;2022-11-30T07:02:25;30.60;;;17.40;;
67352;SDS011;54238;52.278;21.056;2022-11-30T07:04:55;31.80;;;18.40;;
67352;SDS011;54238;52.278;21.056;2022-11-30T07:10:26;33.20;;;17.60;;
67352;SDS011;54238;52.278;21.056;2022-11-30T07:12:56;29.70;;;17.30;;
67352;SDS011;54238;52.278;21.056;2022-11-30T07:15:25;38.50;;;18.10;;
67352;SDS011;54238;52.278;21.056;2022-11-30T07:17:55;33.10;;;18.10;;
67352;SDS011;54238;52.278;21.056;2022-11-30T07:20:26;30.10;;;16.60;;
67352;SDS011;54238;52.278;21.056;2022-11-30T07:25:52;31.10;;;18.40;;
67352;SDS011;54238;52.278;21.056;2022-11-30T07:28:40;29.00;;;17.10;;
67352;SDS011;54238;52.278;21.056;2022-11-30T07:31:15;27.30;;;17.10;;
67352;SDS011;54238;52.278;21.056;2022-11-30T07:33:50;26.60;;;15.50;;
67352;SDS011;54238;52.278;21.056;2022-11-30T07:36:19;34.10;;;18.90;;
67352;SDS011;54238;52.278;21.056;2022-11-30T07:38:50;29.80;;;18.00;;
67352;SDS011;54238;52.278;21.056;2022-11-30T07:41:19;43.20;;;19.80;;
67352;SDS011;54238;52.278;21.056;2022-11-30T07:43:51;38.90;;;19.40;;
67352;SDS011;54238;52.278;21.056;2022-11-30T07:46:20;43.00;;;20.00;;
67352;SDS011;54238;52.278;21.056;2022-11-30T07:48:52;39.90;;;18.80;;
67352;SDS011;54238;52.278;21.056;2022-11-30T07:51:20;45.70;;;20.50;;
67352;SDS011;54238;52.278;21.056;2022-11-30T07:56:45;35.10;;;16.80;;
67352;SDS011;54238;52.278;21.056;2022-11-30T07:59:14;46.50;;;19.50;;
67352;SDS011;54238;52.278;21.056;2022-11-30T08:01:46;39.10;;;19.90;;
67352;SDS011;54238;52.278;21.056;2022-11-30T08:04:13;44.00;;;19.10;;
67352;SDS011;54238;52.278;21.056;2022-11-30T08:06:42;39.40;;;20.00;;
67352;SDS011;54238;52.278;21.056;2022-11-30T08:09:11;43.40;;;18.40;;
67352;SDS011;54238;52.278;21.056;2022-11-30T08:11:38;35.10;;;18.40;;
67352;SDS011;54238;52.278;21.056;2022-11-30T08:14:10;40.20;;;17.60;;
67352;SDS011;54238;52.278;21.056;2022-11-30T08:16:39;34.50;;;17.10;;
67352;SDS011;54238;52.278;21.056;2022-11-30T08:19:12;37.60;;;18.70;;
67352;SDS011;54238;52.278;21.056;2022-11-30T08:21:41;35.40;;;18.70;;
67352;SDS011;54238;52.278;21.056;2022-11-30T08:24:13;37.20;;;19.00;;
67352;SDS011;54238;52.278;21.056;2022-11-30T08:26:43;42.50;;;19.60;;
67352;SDS011;54238;52.278;21.056;2022-11-30T08:29:10;36.30;;;18.70;;
67352;SDS011;54238;52.278;21.056;2022-11-30T08:31:37;39.60;;;19.00;;
67352;SDS011;54238;52.278;21.056;2022-11-30T08:34:10;36.50;;;17.50;;
67352;SDS011;54238;52.278;21.056;2022-11-30T08:36:40;31.00;;;16.10;;
67352;SDS011;54238;52.278;21.056;2022-11-30T08:39:12;23.80;;;12.60;;
67352;SDS011;54238;52.278;21.056;2022-11-30T08:41:44;32.70;;;17.50;;
67352;SDS011;54238;52.278;21.056;2022-11-30T08:44:16;35.50;;;17.20;;
67352;SDS011;54238;52.278;21.056;2022-11-30T08:46:46;32.90;;;16.70;;
67352;SDS011;54238;52.278;21.056;2022-11-30T08:49:16;36.20;;;19.40;;
67352;SDS011;54238;52.278;21.056;2022-11-30T08:51:47;36.60;;;17.90;;
67352;SDS011;54238;52.278;21.056;2022-11-30T08:54:18;36.00;;;18.90;;
67352;SDS011;54238;52.278;21.056;2022-11-30T08:56:49;29.30;;;16.50;;
67352;SDS011;54238;52.278;21.056;2022-11-30T08:59:21;27.50;;;16.20;;
67352;SDS011;54238;52.278;21.056;2022-11-30T09:01:51;23.50;;;13.80;;
67352;SDS011;54238;52.278;21.056;2022-11-30T09:04:20;25.20;;;14.50;;
67352;SDS011;54238;52.278;21.056;2022-11-30T09:06:50;20.00;;;12.30;;
67352;SDS011;54238;52.278;21.056;2022-11-30T09:09:24;26.40;;;14.10;;
67352;SDS011;54238;52.278;21.056;2022-11-30T09:11:51;18.20;;;10.10;;
67352;SDS011;54238;52.278;21.056;2022-11-30T09:14:18;17.90;;;11.40;;
67352;SDS011;54238;52.278;21.056;2022-11-30T09:16:47;22.10;;;13.40;;
67352;SDS011;54238;52.278;21.056;2022-11-30T09:19:19;17.50;;;11.30;;
67352;SDS011;54238;52.278;21.056;2022-11-30T09:21:52;26.40;;;14.20;;
67352;SDS011;54238;52.278;21.056;2022-11-30T09:24:19;28.50;;;15.00;;
67352;SDS011;54238;52.278;21.056;2022-11-30T09:26:54;28.70;;;15.60;;
67352;SDS011;54238;52.278;21.056;2022-11-30T09:29:25;21.70;;;11.80;;
67352;SDS011;54238;52.278;21.056;2022-11-30T09:31:54;26.70;;;15.20;;
67352;SDS011;54238;52.278;21.056;2022-11-30T09:34:21;28.40;;;12.70;;
67352;SDS011;54238;52.278;21.056;2022-11-30T09:36:50;20.40;;;12.00;;
67352;SDS011;54238;52.278;21.056;2022-11-30T09:39:19;17.70;;;10.60;;
67352;SDS011;54238;52.278;21.056;2022-11-30T09:51:07;24.50;;;11.40;;
67352;SDS011;54238;52.278;21.056;2022-11-30T09:53:55;19.90;;;12.00;;
67352;SDS011;54238;52.278;21.056;2022-11-30T09:56:35;24.90;;;13.20;;
67352;SDS011;54238;52.278;21.056;2022-11-30T09:59:13;21.00;;;12.10;;
67352;SDS011;54238;52.278;21.056;2022-11-30T10:01:46;22.20;;;13.60;;
67352;SDS011;54238;52.278;21.056;2022-11-30T10:04:24;26.50;;;14.00;;
67352;SDS011;54238;52.278;21.056;2022-11-30T10:16:28;19.90;;;12.50;;
67352;SDS011;54238;52.278;21.056;2022-11-30T10:22:04;21.20;;;12.90;;
67352;SDS011;54238;52.278;21.056;2022-11-30T10:24:56;25.90;;;13.80;;
67352;SDS011;54238;52.278;21.056;2022-11-30T10:27:51;23.10;;;12.90;;
67352;SDS011;54238;52.278;21.056;2022-11-30T10:30:21;23.20;;;13.00;;
67352;SDS011;54238;52.278;21.056;2022-11-30T10:33:01;27.50;;;13.00;;
67352;SDS011;54238;52.278;21.056;2022-11-30T10:35:42;25.10;;;11.40;;
67352;SDS011;54238;52.278;21.056;2022-11-30T10:38:27;15.10;;;8.70;;
67352;SDS011;54238;52.278;21.056;2022-11-30T10:41:16;23.80;;;12.80;;
67352;SDS011;54238;52.278;21.056;2022-11-30T10:44:14;15.10;;;9.00;;
67352;SDS011;54238;52.278;21.056;2022-11-30T10:47:05;21.10;;;11.30;;
67352;SDS011;54238;52.278;21.056;2022-11-30T10:49:47;20.50;;;11.40;;
67352;SDS011;54238;52.278;21.056;2022-11-30T10:52:19;20.50;;;11.50;;
67352;SDS011;54238;52.278;21.056;2022-11-30T10:55:09;23.70;;;11.70;;
67352;SDS011;54238;52.278;21.056;2022-11-30T10:58:55;20.20;;;11.20;;
67352;SDS011;54238;52.278;21.056;2022-11-30T11:01:47;25.40;;;11.60;;
67352;SDS011;54238;52.278;21.056;2022-11-30T11:04:16;24.50;;;12.30;;
67352;SDS011;54238;52.278;21.056;2022-11-30T11:06:55;24.90;;;12.60;;
67352;SDS011;54238;52.278;21.056;2022-11-30T11:15:06;19.80;;;11.30;;
67352;SDS011;54238;52.278;21.056;2022-11-30T11:17:38;20.80;;;12.20;;
67352;SDS011;54238;52.278;21.056;2022-11-30T11:20:33;21.40;;;11.40;;
67352;SDS011;54238;52.278;21.056;2022-11-30T11:23:20;15.20;;;8.90;;
67352;SDS011;54238;52.278;21.056;2022-11-30T11:26:02;17.80;;;11.00;;
67352;SDS011;54238;52.278;21.056;2022-11-30T11:28:35;23.60;;;12.20;;
67352;SDS011;54238;52.278;21.056;2022-11-30T11:31:21;23.70;;;12.30;;
67352;SDS011;54238;52.278;21.056;2022-11-30T11:34:30;22.50;;;12.10;;
67352;SDS011;54238;52.278;21.056;2022-11-30T11:42:51;20.30;;;11.60;;
67352;SDS011;54238;52.278;21.056;2022-11-30T11:45:27;19.00;;;11.10;;
67352;SDS011;54238;52.278;21.056;2022-11-30T11:48:26;18.70;;;11.10;;
67352;SDS011;54238;52.278;21.056;2022-11-30T11:51:10;19.20;;;9.90;;
67352;SDS011;54238;52.278;21.056;2022-11-30T11:53:42;18.30;;;9.90;;
67352;SDS011;54238;52.278;21.056;2022-11-30T11:56:17;22.10;;;11.50;;
67352;SDS011;54238;52.278;21.056;2022-11-30T12:02:04;17.60;;;10.60;;
67352;SDS011;54238;52.278;21.056;2022-11-30T12:04:59;19.70;;;11.60;;
67352;SDS011;54238;52.278;21.056;2022-11-30T12:07:37;18.80;;;11.20;;
67352;SDS011;54238;52.278;21.056;2022-11-30T12:10:33;22.10;;;11.90;;
67352;SDS011;54238;52.278;21.056;2022-11-30T12:13:14;20.50;;;11.00;;
67352;SDS011;54238;52.278;21.056;2022-11-30T12:15:57;17.70;;;10.60;;
67352;SDS011;54238;52.278;21.056;2022-11-30T12:31:13;24.30;;;11.90;;
67352;SDS011;54238;52.278;21.056;2022-11-30T12:34:21;22.40;;;11.10;;
67352;SDS011;54238;52.278;21.056;2022-11-30T12:42:55;20.50;;;11.70;;
67352;SDS011;54238;52.278;21.056;2022-11-30T12:45:36;21.00;;;11.70;;
67352;SDS011;54238;52.278;21.056;2022-11-30T12:51:23;24.50;;;11.50;;
67352;SDS011;54238;52.278;21.056;2022-11-30T12:54:08;15.10;;;7.70;;
67352;SDS011;54238;52.278;21.056;2022-11-30T12:56:58;20.80;;;10.50;;
67352;SDS011;54238;52.278;21.056;2022-11-30T13:02:59;20.40;;;10.90;;
67352;SDS011;54238;52.278;21.056;2022-11-30T13:05:34;19.50;;;11.20;;
67352;SDS011;54238;52.278;21.056;2022-11-30T13:08:21;19.00;;;10.30;;
67352;SDS011;54238;52.278;21.056;2022-11-30T13:10:54;19.60;;;10.80;;
67352;SDS011;54238;52.278;21.056;2022-11-30T13:13:28;25.70;;;13.00;;
67352;SDS011;54238;52.278;21.056;2022-11-30T13:15:58;23.10;;;12.30;;
67352;SDS011;54238;52.278;21.056;2022-11-30T13:18:30;23.50;;;11.60;;
67352;SDS011;54238;52.278;21.056;2022-11-30T13:21:27;23.70;;;12.40;;
67352;SDS011;54238;52.278;21.056;2022-11-30T13:27:00;18.10;;;10.90;;
67352;SDS011;54238;52.278;21.056;2022-11-30T13:29:45;20.70;;;10.00;;
67352;SDS011;54238;52.278;21.056;2022-11-30T13:32:20;22.00;;;12.10;;
67352;SDS011;54238;52.278;21.056;2022-11-30T13:34:50;20.40;;;12.30;;
67352;SDS011;54238;52.278;21.056;2022-11-30T13:37:19;17.80;;;10.40;;
67352;SDS011;54238;52.278;21.056;2022-11-30T13:42:34;21.90;;;10.00;;
67352;SDS011;54238;52.278;21.056;2022-11-30T13:47:52;23.40;;;12.10;;
67352;SDS011;54238;52.278;21.056;2022-11-30T13:50:31;19.30;;;10.70;;
67352;SDS011;54238;52.278;21.056;2022-11-30T13:56:02;20.60;;;11.20;;
67352;SDS011;54238;52.278;21.056;2022-11-30T13:58:33;23.70;;;12.10;;
67352;SDS011;54238;52.278;21.056;2022-11-30T14:01:26;22.70;;;12.70;;
67352;SDS011;54238;52.278;21.056;2022-11-30T14:04:29;22.80;;;12.80;;
67352;SDS011;54238;52.278;21.056;2022-11-30T14:06:58;24.90;;;12.90;;
67352;SDS011;54238;52.278;21.056;2022-11-30T14:14:59;26.20;;;13.10;;
67352;SDS011;54238;52.278;21.056;2022-11-30T14:17:36;19.30;;;11.90;;
67352;SDS011;54238;52.278;21.056;2022-11-30T14:20:16;21.30;;;11.80;;
67352;SDS011;54238;52.278;21.056;2022-11-30T14:22:54;20.70;;;12.30;;
67352;SDS011;54238;52.278;21.056;2022-11-30T14:25:21;27.60;;;12.50;;
67352;SDS011;54238;52.278;21.056;2022-11-30T14:27:54;24.80;;;12.40;;
67352;SDS011;54238;52.278;21.056;2022-11-30T14:30:27;25.80;;;12.40;;
67352;SDS011;54238;52.278;21.056;2022-11-30T14:33:12;22.10;;;13.10;;
67352;SDS011;54238;52.278;21.056;2022-11-30T14:35:48;27.70;;;13.20;;
67352;SDS011;54238;52.278;21.056;2022-11-30T14:38:26;23.50;;;13.20;;
67352;SDS011;54238;52.278;21.056;2022-11-30T14:41:00;23.20;;;12.70;;
67352;SDS011;54238;52.278;21.056;2022-11-30T14:43:32;25.40;;;12.50;;
67352;SDS011;54238;52.278;21.056;2022-11-30T14:46:01;19.20;;;11.00;;
67352;SDS011;54238;52.278;21.056;2022-11-30T14:48:31;17.70;;;10.90;;
67352;SDS011;54238;52.278;21.056;2022-11-30T14:51:02;21.00;;;11.70;;
67352;SDS011;54238;52.278;21.056;2022-11-30T14:53:40;19.20;;;10.50;;
67352;SDS011;54238;52.278;21.056;2022-11-30T14:56:25;14.90;;;8.80;;
67352;SDS011;54238;52.278;21.056;2022-11-30T14:59:10;17.00;;;10.00;;
67352;SDS011;54238;52.278;21.056;2022-11-30T15:01:44;20.60;;;10.50;;
67352;SDS011;54238;52.278;21.056;2022-11-30T15:04:14;18.60;;;10.50;;
67352;SDS011;54238;52.278;21.056;2022-11-30T15:06:50;16.60;;;10.50;;
67352;SDS011;54238;52.278;21.056;2022-11-30T15:09:24;23.50;;;11.90;;
67352;SDS011;54238;52.278;21.056;2022-11-30T15:11:58;17.90;;;11.10;;
67352;SDS011;54238;52.278;21.056;2022-11-30T15:14:30;16.90;;;10.30;;
67352;SDS011;54238;52.278;21.056;2022-11-30T15:16:59;19.50;;;12.20;;
67352;SDS011;54238;52.278;21.056;2022-11-30T15:19:32;25.30;;;12.00;;
67352;SDS011;54238;52.278;21.056;2022-11-30T15:22:04;19.10;;;12.20;;
67352;SDS011;54238;52.278;21.056;2022-11-30T15:24:31;17.50;;;11.50;;
67352;SDS011;54238;52.278;21.056;2022-11-30T15:27:07;17.20;;;10.20;;
67352;SDS011;54238;52.278;21.056;2022-11-30T15:29:45;16.60;;;9.80;;
67352;SDS011;54238;52.278;21.056;2022-11-30T15:32:24;22.30;;;12.90;;
67352;SDS011;54238;52.278;21.056;2022-11-30T15:34:53;21.00;;;12.10;;
67352;SDS011;54238;52.278;21.056;2022-11-30T15:37:33;20.70;;;11.90;;
67352;SDS011;54238;52.278;21.056;2022-11-30T15:40:12;24.60;;;13.20;;
67352;SDS011;54238;52.278;21.056;2022-11-30T15:42:41;22.30;;;13.20;;
67352;SDS011;54238;52.278;21.056;2022-11-30T15:45:21;22.20;;;12.70;;
67352;SDS011;54238;52.278;21.056;2022-11-30T15:47:53;18.90;;;9.70;;
67352;SDS011;54238;52.278;21.056;2022-11-30T15:52:59;15.80;;;9.00;;
67352;SDS011;54238;52.278;21.056;2022-11-30T15:55:44;13.70;;;8.40;;
67352;SDS011;54238;52.278;21.056;2022-11-30T15:59:05;19.60;;;10.90;;
67352;SDS011;54238;52.278;21.056;2022-11-30T16:01:57;12.10;;;7.10;;
67352;SDS011;54238;52.278;21.056;2022-11-30T16:07:48;20.00;;;12.10;;
67352;SDS011;54238;52.278;21.056;2022-11-30T16:10:30;21.50;;;12.40;;
67352;SDS011;54238;52.278;21.056;2022-11-30T16:13:01;23.40;;;12.90;;
67352;SDS011;54238;52.278;21.056;2022-11-30T16:15:32;17.40;;;10.10;;
67352;SDS011;54238;52.278;21.056;2022-11-30T16:18:21;29.50;;;14.80;;
67352;SDS011;54238;52.278;21.056;2022-11-30T16:20:59;32.50;;;15.10;;
67352;SDS011;54238;52.278;21.056;2022-11-30T16:25:54;33.50;;;16.50;;
67352;SDS011;54238;52.278;21.056;2022-11-30T16:28:24;31.30;;;16.60;;
67352;SDS011;54238;52.278;21.056;2022-11-30T16:30:52;38.00;;;18.70;;
67352;SDS011;54238;52.278;21.056;2022-11-30T16:33:27;28.80;;;13.60;;
67352;SDS011;54238;52.278;21.056;2022-11-30T16:36:02;37.10;;;16.80;;
67352;SDS011;54238;52.278;21.056;2022-11-30T16:38:34;18.60;;;11.60;;
67352;SDS011;54238;52.278;21.056;2022-11-30T16:41:17;17.40;;;10.70;;
67352;SDS011;54238;52.278;21.056;2022-11-30T16:43:52;16.00;;;10.80;;
67352;SDS011;54238;52.278;21.056;2022-11-30T16:46:26;18.00;;;10.20;;
67352;SDS011;54238;52.278;21.056;2022-11-30T16:48:56;17.90;;;9.40;;
67352;SDS011;54238;52.278;21.056;2022-11-30T16:51:31;12.20;;;8.60;;
67352;SDS011;54238;52.278;21.056;2022-11-30T16:54:02;12.50;;;9.00;;
67352;SDS011;54238;52.278;21.056;2022-11-30T16:56:31;15.10;;;9.20;;